createdAt,value
2017-07-26T00:00:11.406Z,0
2017-07-26T00:01:33.495Z,0
2017-07-26T00:02:55.707Z,0
2017-07-26T00:04:17.237Z,0
2017-07-26T00:05:39.397Z,0
2017-07-26T00:07:02.288Z,0
2017-07-26T00:08:24.453Z,0
2017-07-26T00:09:45.985Z,0
2017-07-26T00:11:08.134Z,0
2017-07-26T00:12:30.668Z,0
2017-07-26T00:13:53.146Z,0
2017-07-26T00:15:14.678Z,0
2017-07-26T00:16:37.185Z,0
2017-07-26T00:17:59.336Z,0
2017-07-26T00:19:20.878Z,0
2017-07-26T00:20:43.467Z,0
2017-07-26T00:22:05.936Z,0
2017-07-26T00:23:28.340Z,0
2017-07-26T00:24:50.499Z,0
2017-07-26T00:26:12.711Z,0
2017-07-26T00:27:34.926Z,0
2017-07-26T00:28:57.574Z,0
2017-07-26T00:30:19.103Z,0
2017-07-26T00:31:40.947Z,0
2017-07-26T00:33:03.157Z,0
2017-07-26T00:34:25.297Z,0
2017-07-26T00:35:47.539Z,0
2017-07-26T00:37:09.378Z,0
2017-07-26T00:38:31.673Z,0
2017-07-26T00:39:53.826Z,0
2017-07-26T00:41:15.367Z,0
2017-07-26T00:42:36.909Z,0
2017-07-26T00:43:59.059Z,0
2017-07-26T00:45:20.906Z,0
2017-07-26T00:46:42.817Z,0
2017-07-26T00:48:05.026Z,0
2017-07-26T00:49:27.196Z,0
2017-07-26T00:50:48.965Z,0
2017-07-26T00:52:11.549Z,0
2017-07-26T00:53:33.714Z,0
2017-07-26T00:54:55.566Z,0
2017-07-26T00:56:17.015Z,0
2017-07-26T00:57:38.848Z,0
2017-07-26T00:59:00.735Z,0
2017-07-26T01:00:22.562Z,0
2017-07-26T01:01:44.709Z,0
2017-07-26T01:03:06.866Z,0
2017-07-26T01:04:29.028Z,0
2017-07-26T01:05:51.589Z,0
2017-07-26T01:07:14.008Z,0
2017-07-26T01:08:36.475Z,0
2017-07-26T01:09:58.647Z,0
2017-07-26T01:11:20.534Z,0
2017-07-26T01:12:42.744Z,0
2017-07-26T01:14:04.588Z,0
2017-07-26T01:15:26.417Z,0
2017-07-26T01:16:47.616Z,0
2017-07-26T01:18:10.092Z,0
2017-07-26T01:19:31.937Z,0
2017-07-26T01:20:54.418Z,0
2017-07-26T01:22:16.984Z,0
2017-07-26T01:23:39.411Z,0
2017-07-26T01:25:01.559Z,0
2017-07-26T01:26:23.716Z,0
2017-07-26T01:27:46.162Z,0
2017-07-26T01:29:08.257Z,0
2017-07-26T01:30:30.458Z,0
2017-07-26T01:31:52.927Z,0
2017-07-26T01:33:15.067Z,0
2017-07-26T01:34:37.213Z,0
2017-07-26T01:35:58.727Z,0
2017-07-26T01:37:20.638Z,0
2017-07-26T01:38:42.804Z,0
2017-07-26T01:40:04.907Z,0
2017-07-26T01:41:27.060Z,0
2017-07-26T01:42:47.958Z,0
2017-07-26T01:44:09.496Z,0
2017-07-26T01:45:31.369Z,0
2017-07-26T01:46:53.196Z,0
2017-07-26T01:48:14.397Z,0
2017-07-26T01:49:35.907Z,0
2017-07-26T01:50:58.665Z,0
2017-07-26T01:52:20.194Z,0
2017-07-26T01:53:42.067Z,0
2017-07-26T01:55:04.219Z,0
2017-07-26T01:56:26.939Z,0
2017-07-26T01:57:49.097Z,0
2017-07-26T01:59:11.238Z,0
2017-07-26T02:00:33.390Z,0
2017-07-26T02:01:55.905Z,0
2017-07-26T02:03:18.141Z,0
2017-07-26T02:04:39.996Z,0
2017-07-26T02:06:02.193Z,0
2017-07-26T02:07:24.337Z,0
2017-07-26T02:08:46.501Z,0
2017-07-26T02:10:08.032Z,0
2017-07-26T02:11:29.615Z,0
2017-07-26T02:12:52.407Z,0
2017-07-26T02:14:14.236Z,0
2017-07-26T02:15:36.488Z,0
2017-07-26T02:16:58.325Z,0
2017-07-26T02:18:20.747Z,0
2017-07-26T02:19:42.928Z,0
2017-07-26T02:21:04.757Z,0
2017-07-26T02:22:26.905Z,0
2017-07-26T02:23:48.720Z,0
2017-07-26T02:25:10.890Z,0
2017-07-26T02:26:33.378Z,0
2017-07-26T02:27:55.859Z,0
2017-07-26T02:29:18.669Z,0
2017-07-26T02:30:40.516Z,0
2017-07-26T02:32:02.174Z,0
2017-07-26T02:33:24.127Z,0
2017-07-26T02:34:45.698Z,0
2017-07-26T02:36:08.136Z,0
2017-07-26T02:37:29.973Z,0
2017-07-26T02:38:51.477Z,0
2017-07-26T02:40:13.628Z,0
2017-07-26T02:41:35.787Z,0
2017-07-26T02:42:58.418Z,0
2017-07-26T02:44:20.256Z,0
2017-07-26T02:45:42.758Z,0
2017-07-26T02:47:05.261Z,0
2017-07-26T02:48:27.115Z,0
2017-07-26T02:49:48.637Z,0
2017-07-26T02:51:10.966Z,0
2017-07-26T02:52:32.926Z,0
2017-07-26T02:53:55.086Z,0
2017-07-26T02:55:17.217Z,0
2017-07-26T02:56:39.636Z,0
2017-07-26T02:58:01.157Z,0
2017-07-26T02:59:22.687Z,0
2017-07-26T03:00:44.527Z,0
2017-07-26T03:02:07.287Z,0
2017-07-26T03:03:29.457Z,0
2017-07-26T03:04:50.980Z,0
2017-07-26T03:06:12.599Z,0
2017-07-26T03:07:35.009Z,0
2017-07-26T03:08:57.477Z,0
2017-07-26T03:10:19.318Z,0
2017-07-26T03:11:41.767Z,0
2017-07-26T03:13:04.603Z,0
2017-07-26T03:14:26.117Z,0
2017-07-26T03:15:48.251Z,0
2017-07-26T03:17:10.091Z,0
2017-07-26T03:18:32.566Z,0
2017-07-26T03:19:54.700Z,0
2017-07-26T03:21:17.247Z,0
2017-07-26T03:22:39.466Z,0
2017-07-26T03:24:01.624Z,0
2017-07-26T03:25:24.087Z,0
2017-07-26T03:26:46.670Z,0
2017-07-26T03:28:08.818Z,0
2017-07-26T03:29:30.952Z,0
2017-07-26T03:30:53.096Z,0
2017-07-26T03:32:14.656Z,0
2017-07-26T03:33:37.113Z,0
2017-07-26T03:34:59.282Z,5
2017-07-26T03:36:21.157Z,5
2017-07-26T03:37:42.987Z,5
2017-07-26T03:39:04.186Z,5
2017-07-26T03:40:26.595Z,5
2017-07-26T03:41:48.569Z,5
2017-07-26T03:43:10.403Z,5
2017-07-26T03:44:32.329Z,10
2017-07-26T03:45:54.202Z,10
2017-07-26T03:47:16.708Z,10
2017-07-26T03:48:38.947Z,10
2017-07-26T03:50:00.223Z,10
2017-07-26T03:51:22.612Z,10
2017-07-26T03:52:44.137Z,10
2017-07-26T03:54:05.387Z,10
2017-07-26T03:55:26.917Z,10
2017-07-26T03:56:49.545Z,10
2017-07-26T03:58:11.408Z,15
2017-07-26T03:59:33.857Z,15
2017-07-26T04:00:55.683Z,15
2017-07-26T04:02:17.867Z,15
2017-07-26T04:03:39.727Z,15
2017-07-26T04:05:01.885Z,15
2017-07-26T04:06:23.411Z,15
2017-07-26T04:07:45.817Z,15
2017-07-26T04:09:07.957Z,15
2017-07-26T04:10:29.163Z,20
2017-07-26T04:11:51.648Z,20
2017-07-26T04:13:14.005Z,20
2017-07-26T04:14:36.536Z,25
2017-07-26T04:15:58.035Z,25
2017-07-26T04:17:20.283Z,25
2017-07-26T04:18:42.667Z,30
2017-07-26T04:20:04.947Z,30
2017-07-26T04:21:26.827Z,35
2017-07-26T04:22:48.049Z,35
2017-07-26T04:24:10.557Z,35
2017-07-26T04:25:33.156Z,40
2017-07-26T04:26:54.987Z,40
2017-07-26T04:28:16.827Z,45
2017-07-26T04:29:38.777Z,45
2017-07-26T04:31:01.327Z,50
2017-07-26T04:32:23.487Z,50
2017-07-26T04:33:45.417Z,50
2017-07-26T04:35:07.861Z,55
2017-07-26T04:36:29.800Z,60
2017-07-26T04:37:51.947Z,60
2017-07-26T04:39:14.397Z,60
2017-07-26T04:40:36.889Z,65
2017-07-26T04:41:59.126Z,65
2017-07-26T04:43:21.337Z,70
2017-07-26T04:44:43.146Z,75
2017-07-26T04:46:05.047Z,80
2017-07-26T04:47:27.253Z,85
2017-07-26T04:48:49.425Z,90
2017-07-26T04:50:10.658Z,90
2017-07-26T04:51:32.727Z,95
2017-07-26T04:52:54.269Z,100
2017-07-26T04:54:15.797Z,105
2017-07-26T04:55:37.637Z,115
2017-07-26T04:57:00.087Z,120
2017-07-26T04:58:21.656Z,130
2017-07-26T04:59:43.218Z,135
2017-07-26T05:01:05.401Z,140
2017-07-26T05:02:27.221Z,145
2017-07-26T05:03:49.286Z,145
2017-07-26T05:05:11.515Z,150
2017-07-26T05:06:32.717Z,150
2017-07-26T05:07:55.414Z,150
2017-07-26T05:09:17.258Z,150
2017-07-26T05:10:39.733Z,155
2017-07-26T05:12:00.960Z,145
2017-07-26T05:13:23.806Z,145
2017-07-26T05:14:45.335Z,140
2017-07-26T05:16:07.475Z,145
2017-07-26T05:17:29.673Z,150
2017-07-26T05:18:51.526Z,150
2017-07-26T05:20:13.504Z,155
2017-07-26T05:21:35.677Z,155
2017-07-26T05:22:57.839Z,155
2017-07-26T05:24:19.917Z,160
2017-07-26T05:25:42.075Z,165
2017-07-26T05:27:03.957Z,170
2017-07-26T05:28:26.094Z,175
2017-07-26T05:29:48.628Z,185
2017-07-26T05:31:10.208Z,200
2017-07-26T05:32:32.488Z,230
2017-07-26T05:33:54.643Z,250
2017-07-26T05:35:17.087Z,260
2017-07-26T05:36:38.924Z,255
2017-07-26T05:38:01.109Z,240
2017-07-26T05:39:22.984Z,215
2017-07-26T05:40:45.392Z,180
2017-07-26T05:42:07.242Z,150
2017-07-26T05:43:29.408Z,135
2017-07-26T05:44:51.256Z,120
2017-07-26T05:46:13.029Z,115
2017-07-26T05:47:34.884Z,105
2017-07-26T05:48:57.346Z,100
2017-07-26T05:50:18.946Z,100
2017-07-26T05:51:41.137Z,100
2017-07-26T05:53:03.328Z,95
2017-07-26T05:54:24.878Z,95
2017-07-26T05:55:47.068Z,90
2017-07-26T05:57:09.908Z,80
2017-07-26T05:58:31.867Z,75
2017-07-26T05:59:53.757Z,70
2017-07-26T06:01:15.647Z,70
2017-07-26T06:02:38.205Z,70
2017-07-26T06:04:00.056Z,80
2017-07-26T06:05:22.212Z,90
2017-07-26T06:06:43.746Z,95
2017-07-26T06:08:05.843Z,110
2017-07-26T06:09:27.368Z,130
2017-07-26T06:10:49.511Z,145
2017-07-26T06:12:11.346Z,165
2017-07-26T06:13:33.786Z,185
2017-07-26T06:14:54.837Z,195
2017-07-26T06:16:17.328Z,205
2017-07-26T06:17:38.867Z,215
2017-07-26T06:19:00.966Z,215
2017-07-26T06:20:22.832Z,220
2017-07-26T06:21:44.345Z,220
2017-07-26T06:23:06.557Z,220
2017-07-26T06:24:29.477Z,215
2017-07-26T06:25:51.307Z,210
2017-07-26T06:27:13.476Z,210
2017-07-26T06:28:35.418Z,215
2017-07-26T06:29:57.030Z,220
2017-07-26T06:31:19.547Z,235
2017-07-26T06:32:41.085Z,240
2017-07-26T06:34:02.389Z,250
2017-07-26T06:35:25.129Z,255
2017-07-26T06:36:47.342Z,250
2017-07-26T06:38:09.227Z,245
2017-07-26T06:39:31.130Z,235
2017-07-26T06:40:53.221Z,215
2017-07-26T06:42:15.056Z,205
2017-07-26T06:43:36.934Z,185
2017-07-26T06:44:59.471Z,165
2017-07-26T06:46:21.889Z,155
2017-07-26T06:47:44.436Z,150
2017-07-26T06:49:06.913Z,150
2017-07-26T06:50:28.457Z,150
2017-07-26T06:51:51.037Z,145
2017-07-26T06:53:13.265Z,145
2017-07-26T06:54:34.897Z,150
2017-07-26T06:55:57.062Z,150
2017-07-26T06:57:19.515Z,150
2017-07-26T06:58:41.987Z,150
2017-07-26T07:00:03.886Z,155
2017-07-26T07:01:25.713Z,160
2017-07-26T07:02:48.496Z,160
2017-07-26T07:04:10.672Z,160
2017-07-26T07:05:32.838Z,160
2017-07-26T07:06:54.666Z,165
2017-07-26T07:08:17.190Z,170
2017-07-26T07:09:39.357Z,180
2017-07-26T07:11:01.827Z,190
2017-07-26T07:12:23.973Z,200
2017-07-26T07:13:46.916Z,205
2017-07-26T07:15:09.110Z,215
2017-07-26T07:16:31.259Z,220
2017-07-26T07:17:53.732Z,220
2017-07-26T07:19:15.710Z,220
2017-07-26T07:20:37.366Z,215
2017-07-26T07:21:59.537Z,210
2017-07-26T07:23:21.799Z,200
2017-07-26T07:24:44.021Z,190
2017-07-26T07:26:06.505Z,185
2017-07-26T07:27:28.983Z,180
2017-07-26T07:28:51.544Z,180
2017-07-26T07:30:13.942Z,195
2017-07-26T07:31:36.203Z,220
2017-07-26T07:32:58.356Z,250
2017-07-26T07:34:20.200Z,275
2017-07-26T07:35:42.748Z,295
2017-07-26T07:37:04.599Z,300
2017-07-26T07:38:26.493Z,295
2017-07-26T07:39:48.977Z,290
2017-07-26T07:41:11.106Z,305
2017-07-26T07:42:33.679Z,320
2017-07-26T07:43:55.537Z,340
2017-07-26T07:45:17.051Z,345
2017-07-26T07:46:38.826Z,350
2017-07-26T07:48:00.656Z,360
2017-07-26T07:49:22.484Z,390
2017-07-26T07:50:44.717Z,350
2017-07-26T07:52:07.238Z,350
2017-07-26T07:53:29.405Z,345
2017-07-26T07:54:51.896Z,345
2017-07-26T07:56:14.424Z,350
2017-07-26T07:57:36.596Z,350
2017-07-26T07:58:58.135Z,335
2017-07-26T08:00:19.996Z,310
2017-07-26T08:01:42.489Z,295
2017-07-26T08:03:04.964Z,290
2017-07-26T08:04:27.453Z,285
2017-07-26T08:05:49.935Z,290
2017-07-26T08:07:11.775Z,290
2017-07-26T08:08:34.196Z,305
2017-07-26T08:09:56.266Z,315
2017-07-26T08:11:18.836Z,320
2017-07-26T08:12:41.014Z,320
2017-07-26T08:14:03.906Z,310
2017-07-26T08:15:25.808Z,300
2017-07-26T08:16:48.137Z,290
2017-07-26T08:18:10.696Z,295
2017-07-26T08:19:33.495Z,310
2017-07-26T08:20:55.344Z,325
2017-07-26T08:22:17.190Z,335
2017-07-26T08:23:39.028Z,340
2017-07-26T08:25:01.236Z,340
2017-07-26T08:26:23.715Z,340
2017-07-26T08:27:45.874Z,340
2017-07-26T08:29:07.382Z,335
2017-07-26T08:30:29.526Z,340
2017-07-26T08:31:51.694Z,330
2017-07-26T08:33:13.698Z,340
2017-07-26T08:34:36.236Z,350
2017-07-26T08:35:58.036Z,360
2017-07-26T08:37:20.210Z,365
2017-07-26T08:38:42.115Z,370
2017-07-26T08:40:03.956Z,380
2017-07-26T08:41:26.454Z,390
2017-07-26T08:42:48.306Z,400
2017-07-26T08:44:10.456Z,415
2017-07-26T08:45:32.733Z,420
2017-07-26T08:46:55.181Z,425
2017-07-26T08:48:17.394Z,430
2017-07-26T08:49:39.908Z,435
2017-07-26T08:51:02.096Z,435
2017-07-26T08:52:23.568Z,435
2017-07-26T08:53:45.746Z,430
2017-07-26T08:55:07.591Z,430
2017-07-26T08:56:29.556Z,435
2017-07-26T08:57:52.084Z,440
2017-07-26T08:59:13.286Z,450
2017-07-26T09:00:35.855Z,460
2017-07-26T09:01:57.765Z,475
2017-07-26T09:03:19.866Z,485
2017-07-26T09:04:42.365Z,500
2017-07-26T09:06:04.544Z,520
2017-07-26T09:07:26.767Z,550
2017-07-26T09:08:48.898Z,555
2017-07-26T09:10:11.061Z,540
2017-07-26T09:11:32.927Z,570
2017-07-26T09:12:55.084Z,555
2017-07-26T09:14:17.034Z,555
2017-07-26T09:15:39.517Z,550
2017-07-26T09:17:01.693Z,590
2017-07-26T09:18:23.537Z,580
2017-07-26T09:19:46.458Z,580
2017-07-26T09:21:08.637Z,580
2017-07-26T09:22:30.245Z,595
2017-07-26T09:23:52.127Z,605
2017-07-26T09:25:14.988Z,620
2017-07-26T09:26:37.455Z,620
2017-07-26T09:27:59.626Z,620
2017-07-26T09:29:21.836Z,610
2017-07-26T09:30:44.356Z,595
2017-07-26T09:32:06.195Z,570
2017-07-26T09:33:28.427Z,545
2017-07-26T09:34:50.606Z,525
2017-07-26T09:36:13.399Z,525
2017-07-26T09:37:35.321Z,540
2017-07-26T09:38:57.516Z,550
2017-07-26T09:40:20.011Z,560
2017-07-26T09:41:42.170Z,555
2017-07-26T09:43:04.675Z,555
2017-07-26T09:44:28.897Z,560
2017-07-26T09:45:51.082Z,575
2017-07-26T09:47:13.331Z,595
2017-07-26T09:48:35.836Z,610
2017-07-26T09:49:57.387Z,610
2017-07-26T09:51:19.332Z,605
2017-07-26T09:52:41.555Z,605
2017-07-26T09:54:03.418Z,590
2017-07-26T09:55:25.951Z,570
2017-07-26T09:56:47.915Z,565
2017-07-26T09:58:10.236Z,560
2017-07-26T09:59:32.103Z,535
2017-07-26T10:00:53.957Z,495
2017-07-26T10:02:15.837Z,460
2017-07-26T10:03:37.405Z,430
2017-07-26T10:04:59.653Z,390
2017-07-26T10:06:22.129Z,360
2017-07-26T10:07:43.983Z,320
2017-07-26T10:09:06.826Z,290
2017-07-26T10:10:28.793Z,275
2017-07-26T10:11:50.642Z,260
2017-07-26T10:13:13.084Z,255
2017-07-26T10:14:35.568Z,240
2017-07-26T10:15:57.476Z,235
2017-07-26T10:17:19.336Z,250
2017-07-26T10:18:41.830Z,275
2017-07-26T10:20:03.746Z,335
2017-07-26T10:21:25.610Z,395
2017-07-26T10:22:46.919Z,405
2017-07-26T10:24:09.099Z,425
2017-07-26T10:25:31.580Z,375
2017-07-26T10:26:53.775Z,365
2017-07-26T10:28:15.945Z,385
2017-07-26T10:29:38.416Z,390
2017-07-26T10:31:00.680Z,375
2017-07-26T10:32:22.220Z,415
2017-07-26T10:33:43.769Z,425
2017-07-26T10:35:06.286Z,375
2017-07-26T10:36:29.026Z,310
2017-07-26T10:37:51.267Z,240
2017-07-26T10:39:13.096Z,230
2017-07-26T10:40:35.648Z,220
2017-07-26T10:41:57.843Z,215
2017-07-26T10:43:19.696Z,245
2017-07-26T10:44:41.956Z,235
2017-07-26T10:46:03.186Z,250
2017-07-26T10:47:25.654Z,240
2017-07-26T10:48:48.229Z,260
2017-07-26T10:50:10.717Z,250
2017-07-26T10:51:32.898Z,230
2017-07-26T10:52:55.674Z,235
2017-07-26T10:54:17.826Z,285
2017-07-26T10:55:39.685Z,295
2017-07-26T10:57:01.876Z,280
2017-07-26T10:58:25.016Z,295
2017-07-26T10:59:47.487Z,330
2017-07-26T11:01:09.786Z,345
2017-07-26T11:02:31.325Z,335
2017-07-26T11:03:53.525Z,335
2017-07-26T11:05:15.105Z,320
2017-07-26T11:06:37.612Z,300
2017-07-26T11:08:00.085Z,295
2017-07-26T11:09:22.176Z,310
2017-07-26T11:10:43.676Z,290
2017-07-26T11:12:05.856Z,290
2017-07-26T11:13:28.382Z,315
2017-07-26T11:14:50.895Z,335
2017-07-26T11:16:12.732Z,390
2017-07-26T11:17:34.825Z,340
2017-07-26T11:18:57.323Z,255
2017-07-26T11:20:19.161Z,250
2017-07-26T11:21:41.054Z,265
2017-07-26T11:23:03.306Z,280
2017-07-26T11:24:25.337Z,320
2017-07-26T11:25:47.500Z,365
2017-07-26T11:27:09.714Z,360
2017-07-26T11:28:32.226Z,315
2017-07-26T11:29:54.796Z,275
2017-07-26T11:31:17.486Z,285
2017-07-26T11:32:39.665Z,295
2017-07-26T11:34:02.150Z,315
2017-07-26T11:35:24.325Z,340
2017-07-26T11:36:47.314Z,360
2017-07-26T11:38:09.225Z,370
2017-07-26T11:39:31.751Z,385
2017-07-26T11:40:53.940Z,395
2017-07-26T11:42:16.836Z,330
2017-07-26T11:43:38.806Z,250
2017-07-26T11:45:01.126Z,215
2017-07-26T11:46:22.997Z,215
2017-07-26T11:47:45.416Z,215
2017-07-26T11:49:07.926Z,200
2017-07-26T11:50:30.135Z,200
2017-07-26T11:51:52.612Z,215
2017-07-26T11:53:15.025Z,235
2017-07-26T11:54:36.913Z,235
2017-07-26T11:55:58.436Z,265
2017-07-26T11:57:20.765Z,325
2017-07-26T11:58:43.073Z,425
2017-07-26T12:00:05.234Z,425
2017-07-26T12:01:27.504Z,385
2017-07-26T12:02:49.054Z,380
2017-07-26T12:04:11.928Z,440
2017-07-26T12:05:34.086Z,395
2017-07-26T12:06:56.245Z,330
2017-07-26T12:08:18.768Z,265
2017-07-26T12:09:41.187Z,235
2017-07-26T12:11:03.025Z,240
2017-07-26T12:12:24.220Z,255
2017-07-26T12:13:46.385Z,250
2017-07-26T12:15:08.877Z,250
2017-07-26T12:16:31.362Z,260
2017-07-26T12:17:52.958Z,260
2017-07-26T12:19:14.825Z,245
2017-07-26T12:20:37.306Z,230
2017-07-26T12:21:59.636Z,215
2017-07-26T12:23:21.899Z,215
2017-07-26T12:24:44.073Z,215
2017-07-26T12:26:06.669Z,225
2017-07-26T12:27:28.837Z,225
2017-07-26T12:28:51.011Z,230
2017-07-26T12:30:12.982Z,235
2017-07-26T12:31:35.397Z,255
2017-07-26T12:32:57.572Z,270
2017-07-26T12:34:20.049Z,290
2017-07-26T12:35:42.569Z,305
2017-07-26T12:37:05.115Z,335
2017-07-26T12:38:26.982Z,335
2017-07-26T12:39:49.465Z,325
2017-07-26T12:41:11.328Z,305
2017-07-26T12:42:33.785Z,285
2017-07-26T12:43:55.967Z,300
2017-07-26T12:45:18.143Z,305
2017-07-26T12:46:40.435Z,290
2017-07-26T12:48:02.665Z,275
2017-07-26T12:49:24.568Z,270
2017-07-26T12:50:46.789Z,270
2017-07-26T12:52:08.985Z,245
2017-07-26T12:53:31.456Z,205
2017-07-26T12:54:53.634Z,220
2017-07-26T12:56:15.806Z,220
2017-07-26T12:57:37.964Z,225
2017-07-26T12:59:00.485Z,235
2017-07-26T13:00:22.024Z,230
2017-07-26T13:01:44.235Z,210
2017-07-26T13:03:06.075Z,200
2017-07-26T13:04:28.796Z,200
2017-07-26T13:05:51.024Z,205
2017-07-26T13:07:13.193Z,215
2017-07-26T13:08:35.076Z,230
2017-07-26T13:09:57.742Z,230
2017-07-26T13:11:19.614Z,215
2017-07-26T13:12:42.096Z,205
2017-07-26T13:14:04.744Z,190
2017-07-26T13:15:27.163Z,190
2017-07-26T13:16:49.367Z,190
2017-07-26T13:18:11.539Z,185
2017-07-26T13:19:33.824Z,185
2017-07-26T13:20:55.619Z,195
2017-07-26T13:22:17.795Z,195
2017-07-26T13:23:39.955Z,195
2017-07-26T13:25:02.437Z,190
2017-07-26T13:26:24.533Z,210
2017-07-26T13:27:46.704Z,240
2017-07-26T13:29:08.858Z,250
2017-07-26T13:30:31.405Z,220
2017-07-26T13:31:53.825Z,195
2017-07-26T13:33:16.317Z,185
2017-07-26T13:34:38.211Z,180
2017-07-26T13:35:59.458Z,180
2017-07-26T13:37:22.181Z,175
2017-07-26T13:38:44.035Z,175
2017-07-26T13:40:06.185Z,180
2017-07-26T13:41:28.430Z,185
2017-07-26T13:42:51.057Z,200
2017-07-26T13:44:13.235Z,220
2017-07-26T13:45:35.426Z,240
2017-07-26T13:46:57.914Z,245
2017-07-26T13:48:20.097Z,225
2017-07-26T13:49:41.666Z,200
2017-07-26T13:51:03.832Z,170
2017-07-26T13:52:26.064Z,180
2017-07-26T13:53:47.750Z,180
2017-07-26T13:55:09.613Z,160
2017-07-26T13:56:31.941Z,170
2017-07-26T13:57:54.427Z,170
2017-07-26T13:59:16.963Z,170
2017-07-26T14:00:39.245Z,170
2017-07-26T14:02:01.094Z,170
2017-07-26T14:03:22.953Z,170
2017-07-26T14:04:45.081Z,170
2017-07-26T14:06:07.622Z,170
2017-07-26T14:07:29.624Z,170
2017-07-26T14:08:51.547Z,170
2017-07-26T14:10:14.021Z,170
2017-07-26T14:11:35.890Z,175
2017-07-26T14:12:57.753Z,170
2017-07-26T14:14:19.604Z,165
2017-07-26T14:15:41.783Z,165
2017-07-26T14:17:04.286Z,165
2017-07-26T14:18:26.456Z,165
2017-07-26T14:19:48.924Z,160
2017-07-26T14:21:11.125Z,165
2017-07-26T14:22:33.286Z,170
2017-07-26T14:23:55.654Z,165
2017-07-26T14:25:18.173Z,170
2017-07-26T14:26:40.655Z,170
2017-07-26T14:28:02.804Z,170
2017-07-26T14:29:25.334Z,170
2017-07-26T14:30:47.613Z,170
2017-07-26T14:32:09.784Z,170
2017-07-26T14:33:31.944Z,165
2017-07-26T14:34:53.824Z,160
2017-07-26T14:36:16.334Z,165
2017-07-26T14:37:38.503Z,165
2017-07-26T14:39:00.732Z,165
2017-07-26T14:40:22.594Z,170
2017-07-26T14:41:44.840Z,170
2017-07-26T14:43:07.037Z,170
2017-07-26T14:44:29.593Z,170
2017-07-26T14:45:51.754Z,170
2017-07-26T14:47:13.583Z,170
2017-07-26T14:48:35.691Z,175
2017-07-26T14:49:57.862Z,175
2017-07-26T14:51:20.044Z,175
2017-07-26T14:52:41.898Z,175
2017-07-26T14:54:03.683Z,175
2017-07-26T14:55:25.545Z,175
2017-07-26T14:56:47.396Z,175
2017-07-26T14:58:09.263Z,175
2017-07-26T14:59:32.100Z,175
2017-07-26T15:00:53.953Z,170
2017-07-26T15:02:16.117Z,170
2017-07-26T15:03:38.623Z,170
2017-07-26T15:05:01.025Z,175
2017-07-26T15:06:22.980Z,175
2017-07-26T15:07:44.932Z,175
2017-07-26T15:09:07.426Z,175
2017-07-26T15:10:29.307Z,175
2017-07-26T15:11:51.495Z,175
2017-07-26T15:13:14.007Z,175
2017-07-26T15:14:36.506Z,175
2017-07-26T15:15:58.787Z,175
2017-07-26T15:17:20.666Z,175
2017-07-26T15:18:42.884Z,175
2017-07-26T15:20:04.870Z,170
2017-07-26T15:21:27.315Z,175
2017-07-26T15:22:49.196Z,175
2017-07-26T15:24:11.411Z,170
2017-07-26T15:25:34.076Z,170
2017-07-26T15:26:56.545Z,170
2017-07-26T15:28:18.726Z,170
2017-07-26T15:29:40.959Z,170
2017-07-26T15:31:02.835Z,170
2017-07-26T15:32:25.365Z,175
2017-07-26T15:33:46.928Z,175
2017-07-26T15:35:08.878Z,175
2017-07-26T15:36:30.777Z,175
2017-07-26T15:37:52.937Z,175
2017-07-26T15:39:15.139Z,175
2017-07-26T15:40:36.685Z,175
2017-07-26T15:41:58.565Z,175
2017-07-26T15:43:20.665Z,170
2017-07-26T15:44:42.854Z,170
2017-07-26T15:46:05.016Z,165
2017-07-26T15:47:26.643Z,165
2017-07-26T15:48:49.061Z,165
2017-07-26T15:50:11.646Z,170
2017-07-26T15:51:33.825Z,165
2017-07-26T15:52:56.005Z,165
2017-07-26T15:54:18.485Z,165
2017-07-26T15:55:40.965Z,160
2017-07-26T15:57:03.166Z,160
2017-07-26T15:58:25.083Z,160
2017-07-26T15:59:47.240Z,155
2017-07-26T16:01:09.736Z,160
2017-07-26T16:02:31.947Z,160
2017-07-26T16:03:54.133Z,155
2017-07-26T16:05:16.755Z,155
2017-07-26T16:06:39.005Z,160
2017-07-26T16:08:01.556Z,160
2017-07-26T16:09:23.116Z,160
2017-07-26T16:10:45.277Z,165
2017-07-26T16:12:07.797Z,165
2017-07-26T16:13:30.316Z,170
2017-07-26T16:14:52.506Z,170
2017-07-26T16:16:15.367Z,170
2017-07-26T16:17:37.530Z,165
2017-07-26T16:18:59.387Z,170
2017-07-26T16:20:21.625Z,170
2017-07-26T16:21:44.643Z,170
2017-07-26T16:23:06.895Z,175
2017-07-26T16:24:29.375Z,175
2017-07-26T16:25:51.689Z,170
2017-07-26T16:27:14.203Z,170
2017-07-26T16:28:36.697Z,175
2017-07-26T16:29:59.206Z,175
2017-07-26T16:31:21.451Z,175
2017-07-26T16:32:43.295Z,180
2017-07-26T16:34:05.863Z,180
2017-07-26T16:35:28.035Z,180
2017-07-26T16:36:50.246Z,180
2017-07-26T16:38:12.067Z,185
2017-07-26T16:39:34.238Z,185
2017-07-26T16:40:56.725Z,185
2017-07-26T16:42:18.662Z,185
2017-07-26T16:43:41.212Z,185
2017-07-26T16:45:03.365Z,185
2017-07-26T16:46:26.045Z,185
2017-07-26T16:47:48.205Z,180
2017-07-26T16:49:10.936Z,180
2017-07-26T16:50:33.442Z,180
2017-07-26T16:51:55.654Z,180
2017-07-26T16:53:17.816Z,175
2017-07-26T16:54:40.585Z,175
2017-07-26T16:56:02.444Z,175
2017-07-26T16:57:24.636Z,180
2017-07-26T16:58:46.802Z,180
2017-07-26T17:00:09.436Z,185
2017-07-26T17:01:31.925Z,185
2017-07-26T17:02:54.364Z,185
2017-07-26T17:04:16.536Z,185
2017-07-26T17:05:38.635Z,185
2017-07-26T17:07:00.968Z,185
2017-07-26T17:08:23.477Z,185
2017-07-26T17:09:45.652Z,195
2017-07-26T17:11:07.809Z,190
2017-07-26T17:12:30.396Z,190
2017-07-26T17:13:52.263Z,185
2017-07-26T17:15:14.479Z,185
2017-07-26T17:16:37.316Z,180
2017-07-26T17:17:59.796Z,175
2017-07-26T17:19:21.631Z,175
2017-07-26T17:20:43.854Z,170
2017-07-26T17:22:06.286Z,165
2017-07-26T17:23:28.987Z,165
2017-07-26T17:24:50.950Z,165
2017-07-26T17:26:13.449Z,160
2017-07-26T17:27:36.177Z,155
2017-07-26T17:28:58.374Z,150
2017-07-26T17:30:20.869Z,150
2017-07-26T17:31:43.028Z,150
2017-07-26T17:33:05.826Z,145
2017-07-26T17:34:28.421Z,145
2017-07-26T17:35:50.576Z,140
2017-07-26T17:37:12.834Z,140
2017-07-26T17:38:34.992Z,135
2017-07-26T17:39:57.172Z,135
2017-07-26T17:41:19.678Z,135
2017-07-26T17:42:41.945Z,130
2017-07-26T17:44:04.686Z,130
2017-07-26T17:45:26.928Z,130
2017-07-26T17:46:49.157Z,125
2017-07-26T17:48:11.704Z,120
2017-07-26T17:49:33.874Z,120
2017-07-26T17:50:56.115Z,120
2017-07-26T17:52:18.615Z,120
2017-07-26T17:53:41.128Z,115
2017-07-26T17:55:03.346Z,115
2017-07-26T17:56:25.859Z,110
2017-07-26T17:57:48.066Z,110
2017-07-26T17:59:10.575Z,110
2017-07-26T18:00:33.555Z,105
2017-07-26T18:01:55.716Z,105
2017-07-26T18:03:17.928Z,105
2017-07-26T18:04:40.447Z,105
2017-07-26T18:06:02.597Z,105
2017-07-26T18:07:24.798Z,105
2017-07-26T18:08:47.278Z,105
2017-07-26T18:10:09.455Z,105
2017-07-26T18:11:31.339Z,100
2017-07-26T18:12:53.235Z,100
2017-07-26T18:14:15.838Z,100
2017-07-26T18:15:38.358Z,100
2017-07-26T18:17:00.522Z,95
2017-07-26T18:18:22.394Z,95
2017-07-26T18:19:44.919Z,95
2017-07-26T18:21:07.412Z,90
2017-07-26T18:22:29.933Z,90
2017-07-26T18:23:52.447Z,90
2017-07-26T18:25:14.301Z,85
2017-07-26T18:26:36.141Z,85
2017-07-26T18:27:58.626Z,80
2017-07-26T18:29:21.153Z,80
2017-07-26T18:30:43.076Z,80
2017-07-26T18:32:04.975Z,75
2017-07-26T18:33:27.388Z,75
2017-07-26T18:34:49.578Z,70
2017-07-26T18:36:11.775Z,70
2017-07-26T18:37:33.668Z,70
2017-07-26T18:38:56.464Z,70
2017-07-26T18:40:19.040Z,65
2017-07-26T18:41:41.225Z,65
2017-07-26T18:43:03.746Z,60
2017-07-26T18:44:26.484Z,60
2017-07-26T18:45:48.996Z,55
2017-07-26T18:47:11.632Z,55
2017-07-26T18:48:33.606Z,50
2017-07-26T18:49:56.512Z,50
2017-07-26T18:51:18.845Z,50
2017-07-26T18:52:41.409Z,45
2017-07-26T18:54:03.591Z,45
2017-07-26T18:55:26.437Z,40
2017-07-26T18:56:48.961Z,40
2017-07-26T18:58:11.469Z,40
2017-07-26T18:59:33.326Z,35
2017-07-26T19:00:56.085Z,35
2017-07-26T19:02:18.583Z,35
2017-07-26T19:03:41.066Z,35
2017-07-26T19:05:03.571Z,30
2017-07-26T19:06:26.510Z,30
2017-07-26T19:07:49.000Z,30
2017-07-26T19:09:11.241Z,25
2017-07-26T19:10:33.119Z,25